This is the latest recevied weather packets stored in our database for station/object OH2HCY-3. If no packets are shown the sender has not sent any weather packets the latest 10 day(s).
| Time | Temp. | Humidity | Pressure | Rain* | Wind** | Luminosity | Snow |
|---|---|---|---|---|---|---|---|
| 1787829572 | 21.67° C | 47% | 1027.3 hPa | - | - | - | - |
| 1787828594 | 21.11° C | 47% | 1027.4 hPa | - | - | - | - |
| 1787827427 | 21.11° C | 51% | 1027.2 hPa | - | - | - | - |
| 1787826288 | 20.56° C | 53% | 1027.3 hPa | - | - | - | - |
| 1787825232 | 20.56° C | 57% | 1027.3 hPa | - | - | - | - |
| 1787824197 | 20° C | 56% | 1027.3 hPa | - | - | - | - |
| 1787823182 | 19.44° C | 54% | 1027.4 hPa | - | - | - | - |
| 1787821988 | 18.89° C | 58% | 1027.5 hPa | - | - | - | - |
| 1787820921 | 18.89° C | 50% | - | - | - | - | - |
| 1787820918 | 18.89° C | 58% | 1027.5 hPa | - | - | - | - |
| 1787819831 | 19.44° C | 58% | 1027.5 hPa | - | - | - | - |
| 1787818748 | 18.89° C | 60% | 1027.5 hPa | - | - | - | - |
| 1787817602 | 20° C | 58% | 1027.4 hPa | - | - | - | - |
| 1787816542 | 19.44° C | 57% | 1027.4 hPa | - | - | - | - |
| 1787815543 | 17.78° C | 63% | 1027.4 hPa | - | - | - | - |
| 1787814452 | 17.78° C | 64% | 1027.3 hPa | - | - | - | - |
| 1787813282 | 15.56° C | 74% | 1027.2 hPa | - | - | - | - |
| 1787812124 | 14.44° C | 83% | 1027.3 hPa | - | - | - | - |
| 1787811137 | 13.33° C | 91% | 1027.4 hPa | - | - | - | - |
| 1787809975 | 13.33° C | 92% | 1027.4 hPa | - | - | - | - |
| 1787808877 | 11.67° C | 92% | 1027.5 hPa | - | - | - | - |
| 1787807687 | 10.56° C | 92% | 1027.5 hPa | - | - | - | - |
| 1787806526 | 10° C | 91% | 1027.6 hPa | - | - | - | - |
| 1787805437 | 9.44° C | 91% | 1027.6 hPa | - | - | - | - |
| 1787804302 | 8.89° C | 91% | 1027.6 hPa | - | - | - | - |
* Rain since midnight (hover to see other rain measurements)
** Current wind speed in m/s (hover to see current wind gust speed)